Saint Angelo, United Kingdom
Current Conditions -  °F | °C
As of 1:30 PM on Friday 24 Oct 2014 (Local Time) from EISG Reporting Station
Overcast Overcast  
Wind Chill: 52°   Ceiling: 3600
Heat Index: 52°   Visibility: 6mi
Dew Point: 45°   Wind: 6mph
Humidity: 76%   Direction: 180°S
Pressure: 29.77"   Gusts: NA
Location:  54.4°N, 7.65°W
Report Text: EISG 241230Z 18005KT 140V230 9999 FEW024 BKN036 OVC049 11/07 Q1008
Loading
Personal Weather Stations






























Interactive Weather Map New forecast layout! Learn more

10-Day Weather Forecast

Advertisements
Track Severe Weather on mobile